createdAt,value
2022-10-22T00:00:26.116Z,2.50
2022-10-22T00:02:53.553Z,2.38
2022-10-22T00:05:20.885Z,2.85
2022-10-22T00:07:48.388Z,2.35
2022-10-22T00:10:17.717Z,1.88
2022-10-22T00:12:45.431Z,2.72
2022-10-22T00:15:12.911Z,2.30
2022-10-22T00:17:41.876Z,2.50
2022-10-22T00:20:10.230Z,2.63
2022-10-22T00:22:37.581Z,3.00
2022-10-22T00:25:05.520Z,2.80
2022-10-22T00:27:32.993Z,2.97
2022-10-22T00:30:00.327Z,2.67
2022-10-22T00:32:27.579Z,2.70
2022-10-22T00:34:56.247Z,3.08
2022-10-22T00:37:23.552Z,2.83
2022-10-22T00:39:50.904Z,3.47
2022-10-22T00:42:21.156Z,2.70
2022-10-22T00:45:20.058Z,2.53
2022-10-22T00:47:52.501Z,2.47
2022-10-22T00:50:24.795Z,2.67
2022-10-22T00:52:52.212Z,3.20
2022-10-22T00:55:20.784Z,3.67
2022-10-22T00:57:48.801Z,1.92
2022-10-22T01:00:17.209Z,2.92
2022-10-22T01:02:44.944Z,3.13
2022-10-22T01:05:12.475Z,3.05
2022-10-22T01:07:44.991Z,2.83
2022-10-22T01:10:24.202Z,2.90
2022-10-22T01:15:29.011Z,2.50
2022-10-22T01:18:02.030Z,2.88
2022-10-22T01:20:52.636Z,2.80
2022-10-22T01:23:41.043Z,2.40
2022-10-22T01:26:18.785Z,2.67
2022-10-22T01:29:02.733Z,2.75
2022-10-22T01:31:35.053Z,3.28
2022-10-22T01:34:04.664Z,3.45
2022-10-22T01:36:34.383Z,3.00
2022-10-22T01:39:03.219Z,2.83
2022-10-22T01:41:30.795Z,2.92
2022-10-22T01:43:59.360Z,2.75
2022-10-22T01:46:29.003Z,3.22
2022-10-22T01:49:12.918Z,2.60
2022-10-22T01:52:01.047Z,3.35
2022-10-22T01:54:38.796Z,2.15
2022-10-22T01:57:13.769Z,2.28
2022-10-22T01:59:51.068Z,1.98
2022-10-22T02:02:29.811Z,2.47
2022-10-22T02:05:00.894Z,2.58
2022-10-22T02:07:31.413Z,2.67
2022-10-22T02:10:01.135Z,3.38
2022-10-22T02:12:31.338Z,2.97
2022-10-22T02:15:02.719Z,2.13
2022-10-22T02:17:35.985Z,3.28
2022-10-22T02:20:08.568Z,3.15
2022-10-22T02:22:37.733Z,2.42
2022-10-22T02:25:06.850Z,2.67
2022-10-22T02:27:41.221Z,3.40
2022-10-22T02:30:13.375Z,2.95
2022-10-22T02:32:44.616Z,2.63
2022-10-22T02:35:15.992Z,3.25
2022-10-22T02:37:44.403Z,3.00
2022-10-22T02:40:12.419Z,3.38
2022-10-22T02:42:42.502Z,2.58
2022-10-22T02:45:12.112Z,2.47
2022-10-22T02:47:39.392Z,2.22
2022-10-22T02:50:09.612Z,2.42
2022-10-22T02:52:38.476Z,3.10
2022-10-22T02:55:06.794Z,3.90
2022-10-22T02:57:34.307Z,3.28
2022-10-22T03:00:01.576Z,2.67
2022-10-22T03:02:31.632Z,2.30
2022-10-22T03:04:58.825Z,2.17
2022-10-22T03:07:26.241Z,1.58
2022-10-22T03:09:53.543Z,3.47
2022-10-22T03:12:20.890Z,3.42
2022-10-22T03:14:48.263Z,3.13
2022-10-22T03:17:15.606Z,3.30
2022-10-22T03:19:44.350Z,2.63
2022-10-22T03:22:15.970Z,2.97
2022-10-22T03:24:45.541Z,2.70
2022-10-22T03:27:15.331Z,3.08
2022-10-22T03:29:43.592Z,2.30
2022-10-22T03:32:11.022Z,2.38
2022-10-22T03:34:38.455Z,3.08
2022-10-22T03:37:07.637Z,2.00
2022-10-22T03:39:36.532Z,2.92
2022-10-22T03:42:05.637Z,3.60
2022-10-22T03:44:33.220Z,3.22
2022-10-22T03:47:02.608Z,2.88
2022-10-22T03:49:30.153Z,3.25
2022-10-22T03:51:57.896Z,1.95
2022-10-22T03:54:26.517Z,3.17
2022-10-22T03:56:53.855Z,2.95
2022-10-22T03:59:21.139Z,2.72
2022-10-22T04:01:48.565Z,2.88
2022-10-22T04:04:15.796Z,2.85
2022-10-22T04:06:43.107Z,2.22
2022-10-22T04:09:10.370Z,2.75
2022-10-22T04:11:39.250Z,2.60
2022-10-22T04:14:06.679Z,2.58
2022-10-22T04:16:34.027Z,2.17
2022-10-22T04:19:01.326Z,2.30
2022-10-22T04:21:28.538Z,2.13
2022-10-22T04:23:56.099Z,2.72
2022-10-22T04:26:23.585Z,3.03
2022-10-22T04:28:53.227Z,2.38
2022-10-22T04:31:22.940Z,2.15
2022-10-22T04:33:53.028Z,2.80
2022-10-22T04:36:20.446Z,2.60
2022-10-22T04:38:52.212Z,2.33
2022-10-22T04:41:21.239Z,2.90
2022-10-22T04:43:49.023Z,2.00
2022-10-22T04:46:18.720Z,2.60
2022-10-22T04:48:47.161Z,2.95
2022-10-22T04:51:16.951Z,3.33
2022-10-22T04:53:45.198Z,2.45
2022-10-22T04:56:16.348Z,2.80
2022-10-22T04:58:44.548Z,2.60
2022-10-22T05:01:14.879Z,2.42
2022-10-22T05:03:44.372Z,2.13
2022-10-22T05:08:40.860Z,2.17
2022-10-22T05:11:13.121Z,1.77
2022-10-22T05:13:40.518Z,0.52
2022-10-22T05:16:08.213Z,2.70
2022-10-22T05:18:36.693Z,1.90
2022-10-22T05:21:09.755Z,2.33
2022-10-22T05:23:37.025Z,1.77
2022-10-22T05:26:05.024Z,2.03
2022-10-22T05:28:33.382Z,2.10
2022-10-22T05:31:01.484Z,1.85
2022-10-22T05:33:29.585Z,1.02
2022-10-22T05:35:57.317Z,1.73
2022-10-22T05:38:26.353Z,1.75
2022-10-22T05:41:00.926Z,2.03
2022-10-22T05:43:28.912Z,1.90
2022-10-22T05:45:56.665Z,1.42
2022-10-22T05:48:23.942Z,1.70
2022-10-22T05:50:51.170Z,1.45
2022-10-22T05:53:18.761Z,1.83
2022-10-22T05:55:47.382Z,2.25
2022-10-22T05:58:14.970Z,1.45
2022-10-22T06:00:42.284Z,2.17
2022-10-22T06:03:09.519Z,1.55
2022-10-22T06:05:37.913Z,1.90
2022-10-22T06:08:06.036Z,1.77
2022-10-22T06:10:33.708Z,1.10
2022-10-22T06:13:03.459Z,1.52
2022-10-22T06:15:30.771Z,2.30
2022-10-22T06:17:58.173Z,1.65
2022-10-22T06:20:25.502Z,2.17
2022-10-22T06:22:52.757Z,1.30
2022-10-22T06:25:20.014Z,1.70
2022-10-22T06:27:50.499Z,1.85
2022-10-22T06:30:19.268Z,1.63
2022-10-22T06:32:46.671Z,1.48
2022-10-22T06:35:13.958Z,1.50
2022-10-22T06:37:41.499Z,1.10
2022-10-22T06:40:11.150Z,1.50
2022-10-22T06:42:39.486Z,2.03
2022-10-22T06:45:08.670Z,1.40
2022-10-22T06:47:38.055Z,1.65
2022-10-22T06:50:06.432Z,1.40
2022-10-22T06:52:33.732Z,1.25
2022-10-22T06:55:01.118Z,1.65
2022-10-22T06:57:31.149Z,1.63
2022-10-22T06:59:58.451Z,1.50
2022-10-22T07:02:25.786Z,1.40
2022-10-22T07:04:54.754Z,1.70
2022-10-22T07:07:22.399Z,1.65
2022-10-22T07:09:51.362Z,1.85
2022-10-22T07:12:18.881Z,1.60
2022-10-22T07:14:46.088Z,1.55
2022-10-22T07:17:13.521Z,1.50
2022-10-22T07:19:40.876Z,2.17
2022-10-22T07:22:09.974Z,1.45
2022-10-22T07:24:37.335Z,1.52
2022-10-22T07:27:08.119Z,1.50
2022-10-22T07:29:38.200Z,2.15
2022-10-22T07:32:05.941Z,1.58
2022-10-22T07:34:33.424Z,1.60
2022-10-22T07:37:00.706Z,1.90
2022-10-22T07:39:29.431Z,1.90
2022-10-22T07:41:56.738Z,1.33
2022-10-22T07:44:24.046Z,1.15
2022-10-22T07:46:51.431Z,1.45
2022-10-22T07:49:18.764Z,1.30
2022-10-22T07:51:46.034Z,1.45
2022-10-22T07:54:13.250Z,1.10
2022-10-22T07:56:41.899Z,0.70
2022-10-22T07:59:09.145Z,1.48
2022-10-22T08:01:36.440Z,1.45
2022-10-22T08:04:03.722Z,1.35
2022-10-22T08:06:31.069Z,1.33
2022-10-22T08:08:58.381Z,1.13
2022-10-22T08:11:26.920Z,2.17
2022-10-22T08:13:55.611Z,2.03
2022-10-22T08:16:22.898Z,1.65
2022-10-22T08:18:50.843Z,1.23
2022-10-22T08:21:18.228Z,0.88
2022-10-22T08:23:45.473Z,1.45
2022-10-22T08:26:12.879Z,0.75
2022-10-22T08:28:40.222Z,1.25
2022-10-22T08:31:09.038Z,1.77
2022-10-22T08:33:37.104Z,1.80
2022-10-22T08:36:05.424Z,0.60
2022-10-22T08:38:32.917Z,0.50
2022-10-22T08:41:08.991Z,2.25
2022-10-22T08:43:58.436Z,0.93
2022-10-22T08:46:42.879Z,2.13
2022-10-22T08:49:17.278Z,1.13
2022-10-22T08:51:44.696Z,2.05
2022-10-22T08:54:21.996Z,1.50
2022-10-22T08:57:02.366Z,3.03
2022-10-22T08:59:36.839Z,1.75
2022-10-22T09:02:23.014Z,2.85
2022-10-22T09:04:58.793Z,1.65
2022-10-22T09:07:26.067Z,2.35
2022-10-22T09:09:56.134Z,2.13
2022-10-22T09:12:26.244Z,0.82
2022-10-22T09:14:54.122Z,1.55
2022-10-22T09:17:29.433Z,2.40
2022-10-22T09:20:09.420Z,1.40
2022-10-22T09:22:45.185Z,1.70
2022-10-22T09:25:19.996Z,1.92
2022-10-22T09:27:47.906Z,2.35
2022-10-22T09:30:18.314Z,2.45
2022-10-22T09:32:48.227Z,1.50
2022-10-22T09:35:21.558Z,2.22
2022-10-22T09:37:51.210Z,1.67
2022-10-22T09:40:19.909Z,1.15
2022-10-22T09:42:48.097Z,1.95
2022-10-22T09:45:23.641Z,1.25
2022-10-22T09:48:10.201Z,1.95
2022-10-22T09:50:43.278Z,0.82
2022-10-22T09:53:17.692Z,1.90
2022-10-22T09:55:50.864Z,0.93
2022-10-22T09:58:20.009Z,1.45
2022-10-22T10:00:51.653Z,1.55
2022-10-22T10:03:22.962Z,1.20
2022-10-22T10:05:53.895Z,0.98
2022-10-22T10:08:21.474Z,1.75
2022-10-22T10:10:52.638Z,1.45
2022-10-22T10:13:42.702Z,0.63
2022-10-22T10:16:19.473Z,1.58
2022-10-22T10:19:05.952Z,1.33
2022-10-22T10:21:47.025Z,0.70
2022-10-22T10:24:22.771Z,1.08
2022-10-22T10:26:58.654Z,1.05
2022-10-22T10:29:43.043Z,1.40
2022-10-22T10:32:33.131Z,1.48
2022-10-22T10:35:15.655Z,1.63
2022-10-22T10:37:49.249Z,1.10
2022-10-22T10:40:28.211Z,2.08
2022-10-22T10:43:00.406Z,1.35
2022-10-22T10:45:36.609Z,0.95
2022-10-22T10:48:15.732Z,1.38
2022-10-22T10:50:56.170Z,0.85
2022-10-22T10:53:36.532Z,0.93
2022-10-22T10:56:14.104Z,1.02
2022-10-22T10:58:53.012Z,0.90
2022-10-22T11:01:27.612Z,1.17
2022-10-22T11:04:23.890Z,0.93
2022-10-22T11:07:10.655Z,2.00
2022-10-22T11:09:44.942Z,1.00
2022-10-22T11:12:19.053Z,0.90
2022-10-22T11:14:57.367Z,1.05
2022-10-22T11:17:29.773Z,0.93
2022-10-22T11:22:36.485Z,0.08
2022-10-22T11:25:12.981Z,0.70
2022-10-22T11:27:45.966Z,0.65
2022-10-22T11:30:16.621Z,0.82
2022-10-22T11:32:47.690Z,1.20
2022-10-22T11:35:20.226Z,1.08
2022-10-22T11:37:55.029Z,0.90
2022-10-22T11:40:32.075Z,0.70
2022-10-22T11:43:04.745Z,0.80
2022-10-22T11:45:36.031Z,0.77
2022-10-22T11:48:15.878Z,0.93
2022-10-22T11:50:51.042Z,1.25
2022-10-22T11:53:27.422Z,0.60
2022-10-22T11:55:57.695Z,0.85
2022-10-22T11:58:31.742Z,1.50
2022-10-22T12:01:21.610Z,1.05
2022-10-22T12:03:50.785Z,0.93
2022-10-22T12:06:23.468Z,1.00
2022-10-22T12:09:01.785Z,0.82
2022-10-22T12:11:37.618Z,0.85
2022-10-22T12:14:19.965Z,1.40
2022-10-22T12:16:57.333Z,1.08
2022-10-22T12:19:29.409Z,0.75
2022-10-22T12:22:00.226Z,0.60
2022-10-22T12:24:34.678Z,0.85
2022-10-22T12:27:02.238Z,0.88
2022-10-22T12:29:32.778Z,1.00
2022-10-22T12:32:03.673Z,0.50
2022-10-22T12:34:30.978Z,1.23
2022-10-22T12:36:58.196Z,1.50
2022-10-22T12:39:27.557Z,1.00
2022-10-22T12:41:56.302Z,1.15
2022-10-22T12:44:23.661Z,1.08
2022-10-22T12:46:54.486Z,0.38
2022-10-22T12:49:33.485Z,0.95
2022-10-22T12:52:04.053Z,1.25
2022-10-22T12:54:33.365Z,1.30
2022-10-22T12:57:03.042Z,1.48
2022-10-22T12:59:35.033Z,1.63
2022-10-22T13:02:06.740Z,1.27
2022-10-22T13:04:38.212Z,1.40
2022-10-22T13:07:18.529Z,1.38
2022-10-22T13:09:57.911Z,1.10
2022-10-22T13:12:27.731Z,1.52
2022-10-22T13:14:55.015Z,0.73
2022-10-22T13:17:38.904Z,2.10
2022-10-22T13:20:21.400Z,1.83
2022-10-22T13:22:57.682Z,1.88
2022-10-22T13:25:27.280Z,1.35
2022-10-22T13:27:58.340Z,1.70
2022-10-22T13:30:29.147Z,1.73
2022-10-22T13:32:58.810Z,1.70
2022-10-22T13:35:29.534Z,1.13
2022-10-22T13:37:56.773Z,1.83
2022-10-22T13:40:24.166Z,1.90
2022-10-22T13:42:51.400Z,1.58
2022-10-22T13:45:20.439Z,1.67
2022-10-22T13:47:51.962Z,1.58
2022-10-22T13:50:21.185Z,1.83
2022-10-22T13:52:52.853Z,1.35
2022-10-22T13:55:22.850Z,1.27
2022-10-22T13:57:50.037Z,1.48
2022-10-22T14:00:21.154Z,1.90
2022-10-22T14:02:53.434Z,1.45
2022-10-22T14:05:21.469Z,1.95
2022-10-22T14:07:49.266Z,1.77
2022-10-22T14:10:19.964Z,0.40
2022-10-22T14:12:52.373Z,1.38
2022-10-22T14:15:24.329Z,0.43
2022-10-22T14:17:56.457Z,1.45
2022-10-22T14:20:27.026Z,0.55
2022-10-22T14:22:54.328Z,0.80
2022-10-22T14:25:24.813Z,1.85
2022-10-22T14:27:52.750Z,1.67
2022-10-22T14:30:23.351Z,1.30
2022-10-22T14:32:51.593Z,2.05
2022-10-22T14:35:20.425Z,0.98
2022-10-22T14:37:47.854Z,3.08
2022-10-22T14:40:17.052Z,2.08
2022-10-22T14:42:46.759Z,1.52
2022-10-22T14:45:17.900Z,1.63
2022-10-22T14:47:47.183Z,2.47
2022-10-22T14:50:14.839Z,2.08
2022-10-22T14:52:43.674Z,2.08
2022-10-22T14:55:12.094Z,2.60
2022-10-22T14:57:39.955Z,1.73
2022-10-22T15:00:11.750Z,2.83
2022-10-22T15:02:39.477Z,1.88
2022-10-22T15:05:09.300Z,2.80
2022-10-22T15:07:37.295Z,2.40
2022-10-22T15:10:06.409Z,2.55
2022-10-22T15:12:33.927Z,2.90
2022-10-22T15:15:01.287Z,2.40
2022-10-22T15:17:28.735Z,2.10
2022-10-22T15:19:56.561Z,2.22
2022-10-22T15:22:25.305Z,2.47
2022-10-22T15:24:53.719Z,2.08
2022-10-22T15:27:21.348Z,0.98
2022-10-22T15:29:48.611Z,1.90
2022-10-22T15:32:16.011Z,1.48
2022-10-22T15:34:43.313Z,1.23
2022-10-22T15:37:13.949Z,1.58
2022-10-22T15:39:42.739Z,2.42
2022-10-22T15:42:10.272Z,2.92
2022-10-22T15:44:39.990Z,2.03
2022-10-22T15:47:07.900Z,2.67
2022-10-22T15:49:36.796Z,3.00
2022-10-22T15:52:05.179Z,2.17
2022-10-22T15:54:33.290Z,1.58
2022-10-22T15:57:05.917Z,1.85
2022-10-22T15:59:33.359Z,1.40
2022-10-22T16:02:00.525Z,1.17
2022-10-22T16:04:27.845Z,2.25
2022-10-22T16:06:55.555Z,2.03
2022-10-22T16:09:24.321Z,2.15
2022-10-22T16:14:23.584Z,2.22
2022-10-22T16:16:52.387Z,2.25
2022-10-22T16:19:22.405Z,2.38
2022-10-22T16:21:51.355Z,2.97
2022-10-22T16:24:19.424Z,2.60
2022-10-22T16:26:47.487Z,2.17
2022-10-22T16:29:15.057Z,2.63
2022-10-22T16:31:44.159Z,1.20
2022-10-22T16:34:12.189Z,3.08
2022-10-22T16:36:39.434Z,1.42
2022-10-22T16:39:07.925Z,2.25
2022-10-22T16:41:35.556Z,3.50
2022-10-22T16:44:05.062Z,2.42
2022-10-22T16:46:33.536Z,2.80
2022-10-22T16:49:02.328Z,2.67
2022-10-22T16:51:29.727Z,3.35
2022-10-22T16:53:57.515Z,3.45
2022-10-22T16:56:26.439Z,4.28
2022-10-22T16:58:55.982Z,2.92
2022-10-22T17:01:26.585Z,3.38
2022-10-22T17:03:57.199Z,3.08
2022-10-22T17:06:26.014Z,2.85
2022-10-22T17:08:53.907Z,3.13
2022-10-22T17:11:23.933Z,3.75
2022-10-22T17:13:52.835Z,3.33
2022-10-22T17:16:22.226Z,3.90
2022-10-22T17:18:49.602Z,2.45
2022-10-22T17:21:18.305Z,2.88
2022-10-22T17:23:47.792Z,2.83
2022-10-22T17:26:17.487Z,2.15
2022-10-22T17:28:44.785Z,1.90
2022-10-22T17:31:18.647Z,3.90
2022-10-22T17:33:46.900Z,2.08
2022-10-22T17:36:14.667Z,3.58
2022-10-22T17:38:43.147Z,3.20
2022-10-22T17:41:17.810Z,3.75
2022-10-22T17:46:20.501Z,3.47
2022-10-22T17:48:49.916Z,3.38
2022-10-22T17:51:17.622Z,2.97
2022-10-22T17:53:46.219Z,3.40
2022-10-22T17:56:17.265Z,2.67
2022-10-22T17:58:44.991Z,3.92
2022-10-22T18:01:20.693Z,1.63
2022-10-22T18:03:48.244Z,4.28
2022-10-22T18:06:16.197Z,4.28
2022-10-22T18:08:43.629Z,3.97
2022-10-22T18:11:16.375Z,3.80
2022-10-22T18:13:43.699Z,2.50
2022-10-22T18:16:11.116Z,3.17
2022-10-22T18:18:38.406Z,4.53
2022-10-22T18:21:05.948Z,3.22
2022-10-22T18:23:33.577Z,3.97
2022-10-22T18:26:04.116Z,3.75
2022-10-22T18:28:33.056Z,3.67
2022-10-22T18:31:00.357Z,2.65
2022-10-22T18:33:27.604Z,3.58
2022-10-22T18:35:54.857Z,4.60
2022-10-22T18:38:22.107Z,4.13
2022-10-22T18:40:50.086Z,3.20
2022-10-22T18:43:18.844Z,3.85
2022-10-22T18:45:48.647Z,1.85
2022-10-22T18:48:17.931Z,3.58
2022-10-22T18:50:46.794Z,2.22
2022-10-22T18:53:16.293Z,3.00
2022-10-22T18:55:43.900Z,4.00
2022-10-22T18:58:11.215Z,3.97
2022-10-22T19:00:38.704Z,1.83
2022-10-22T19:03:07.477Z,4.38
2022-10-22T19:05:34.979Z,4.05
2022-10-22T19:08:02.192Z,3.35
2022-10-22T19:10:29.536Z,2.83
2022-10-22T19:12:56.910Z,1.33
2022-10-22T19:15:24.294Z,4.13
2022-10-22T19:17:51.783Z,3.10
2022-10-22T19:20:20.694Z,4.00
2022-10-22T19:22:49.990Z,3.53
2022-10-22T19:25:17.310Z,3.53
2022-10-22T19:27:44.838Z,3.80
2022-10-22T19:30:13.253Z,2.90
2022-10-22T19:32:40.709Z,3.03
2022-10-22T19:35:08.838Z,3.72
2022-10-22T19:37:37.812Z,1.80
2022-10-22T19:40:07.096Z,3.35
2022-10-22T19:42:34.733Z,1.17
2022-10-22T19:45:02.108Z,2.53
2022-10-22T19:47:31.024Z,2.05
2022-10-22T19:49:58.256Z,1.67
2022-10-22T19:52:25.598Z,3.22
2022-10-22T19:54:54.367Z,3.20
2022-10-22T19:57:21.939Z,3.22
2022-10-22T19:59:49.199Z,3.78
2022-10-22T20:02:17.888Z,3.70
2022-10-22T20:04:49.220Z,3.55
2022-10-22T20:07:17.641Z,3.42
2022-10-22T20:09:44.865Z,2.38
2022-10-22T20:12:13.502Z,2.00
2022-10-22T20:14:41.066Z,2.88
2022-10-22T20:17:08.229Z,2.90
2022-10-22T20:19:35.492Z,3.25
2022-10-22T20:22:02.911Z,2.40
2022-10-22T20:24:30.326Z,3.60
2022-10-22T20:26:57.662Z,4.05
2022-10-22T20:29:26.330Z,2.83
2022-10-22T20:31:54.120Z,4.03
2022-10-22T20:34:21.470Z,3.25
2022-10-22T20:36:49.047Z,3.17
2022-10-22T20:39:16.988Z,1.75
2022-10-22T20:41:44.494Z,2.28
2022-10-22T20:44:15.164Z,3.97
2022-10-22T20:46:44.520Z,3.17
2022-10-22T20:49:15.058Z,3.22
2022-10-22T20:51:42.620Z,3.08
2022-10-22T20:54:10.714Z,1.95
2022-10-22T20:56:40.237Z,3.38
2022-10-22T20:59:10.800Z,2.88
2022-10-22T21:01:39.703Z,3.22
2022-10-22T21:04:09.097Z,2.67
2022-10-22T21:06:38.360Z,2.40
2022-10-22T21:09:07.298Z,2.78
2022-10-22T21:11:35.295Z,2.72
2022-10-22T21:14:03.270Z,3.80
2022-10-22T21:16:30.845Z,2.80
2022-10-22T21:18:58.067Z,2.90
2022-10-22T21:21:26.678Z,2.42
2022-10-22T21:23:54.163Z,3.15
2022-10-22T21:26:21.628Z,3.50
2022-10-22T21:28:49.015Z,3.28
2022-10-22T21:31:25.990Z,3.45
2022-10-22T21:33:54.018Z,3.60
2022-10-22T21:36:23.241Z,1.83
2022-10-22T21:38:52.725Z,2.38
2022-10-22T21:41:21.828Z,2.70
2022-10-22T21:43:50.099Z,2.42
2022-10-22T21:46:18.842Z,1.65
2022-10-22T21:48:46.654Z,2.70
2022-10-22T21:51:15.586Z,3.08
2022-10-22T21:53:42.863Z,2.22
2022-10-22T21:56:16.483Z,1.75
2022-10-22T21:58:43.768Z,2.30
2022-10-22T22:01:11.759Z,2.17
2022-10-22T22:03:41.134Z,2.15
2022-10-22T22:06:08.733Z,2.72
2022-10-22T22:08:36.256Z,2.67
2022-10-22T22:11:05.595Z,2.10
2022-10-22T22:13:34.793Z,2.47
2022-10-22T22:16:02.941Z,3.10
2022-10-22T22:18:30.416Z,2.78
2022-10-22T22:20:58.493Z,3.90
2022-10-22T22:23:26.575Z,2.72
2022-10-22T22:25:58.033Z,2.75
2022-10-22T22:28:25.403Z,2.83
2022-10-22T22:30:54.225Z,1.73
2022-10-22T22:33:21.555Z,3.25
2022-10-22T22:35:48.943Z,2.45
2022-10-22T22:38:16.477Z,2.58
2022-10-22T22:40:43.970Z,1.58
2022-10-22T22:43:12.456Z,3.03
2022-10-22T22:45:40.857Z,3.28
2022-10-22T22:48:09.540Z,2.38
2022-10-22T22:50:37.024Z,3.35
2022-10-22T22:53:04.309Z,3.38
2022-10-22T22:55:32.128Z,1.30
2022-10-22T22:57:59.508Z,3.30
2022-10-22T23:00:26.812Z,3.03
2022-10-22T23:02:55.374Z,2.95
2022-10-22T23:05:24.067Z,2.90
2022-10-22T23:07:51.295Z,3.28
2022-10-22T23:10:18.674Z,3.30
2022-10-22T23:12:46.032Z,3.17
2022-10-22T23:15:13.424Z,3.65
2022-10-22T23:17:40.728Z,4.22
2022-10-22T23:20:09.240Z,3.03
2022-10-22T23:22:37.979Z,2.97
2022-10-22T23:25:05.985Z,4.50
2022-10-22T23:27:33.335Z,2.83
2022-10-22T23:30:00.580Z,4.07
2022-10-22T23:32:28.043Z,3.17
2022-10-22T23:34:55.363Z,3.70
2022-10-22T23:37:22.686Z,4.18
2022-10-22T23:39:51.394Z,4.03
2022-10-22T23:42:18.582Z,3.50
2022-10-22T23:44:45.940Z,1.20
2022-10-22T23:47:13.184Z,4.88
2022-10-22T23:49:40.438Z,4.53
2022-10-22T23:52:07.736Z,4.13
2022-10-22T23:54:35.135Z,2.50
2022-10-22T23:57:03.976Z,4.13
2022-10-22T23:59:31.226Z,3.78
